Time;durP1;ratioP1;P1;durP2;ratioP2;P2;SDS_P1;SDS_P2;PMS_P1;PMS_P2;Temp;Humidity;BMP_temperature;BMP_pressure;BME280_temperature;BME280_humidity;BME280_pressure;Samples;Min_cycle;Max_cycle;Signal;HPM_P1;HPM_P2
2022/02/06 00:00:53;;;;;;;8.82;2.45;;;;;;;4.71;64.40;100428.16;1088444;54;20029;-84
2022/02/06 00:05:26;;;;;;;8.65;2.13;;;;;;;4.83;63.72;100425.56;1088173;54;20022;-83
2022/02/06 00:06:44;;;;;;;7.55;2.67;;;;;;;4.83;63.92;100424.72;1094349;39;20543;-83
2022/02/06 00:58:58;;;;;;;;;;;;;;;5.43;61.94;100338.59;1077995;54;20154;-84
2022/02/06 01:01:51;;;;;;;7.60;1.90;;;;;;;5.48;61.92;100340.94;1088599;54;20248;-83
2022/02/06 01:04:34;;;;;;;8.88;2.10;;;;;;;5.41;61.69;100340.50;1088018;54;20029;-84
2022/02/06 01:05:35;;;;;;;8.57;1.70;;;;;;;5.41;61.97;100339.66;1088619;54;20023;-83
2022/02/06 01:07:16;;;;;;;8.93;2.28;;;;;;;5.49;61.74;100336.47;1088687;54;20018;-83
2022/02/06 01:08:18;;;;;;;7.05;1.67;;;;;;;5.59;61.49;100345.50;1088603;54;20049;-83
2022/02/06 01:24:08;;;;;;;;;;;;;;;5.60;60.86;100349.84;1088279;54;20046;-81
2022/02/06 01:25:14;;;;;;;7.78;1.90;;;;;;;5.60;61.15;100355.16;1088617;54;19933;-83
2022/02/06 01:26:22;;;;;;;7.07;1.40;;;;;;;5.65;61.13;100354.84;1088733;54;20025;-82
2022/02/06 01:27:36;;;;;;;7.05;2.00;;;;;;;5.75;60.80;100356.78;1088593;54;20053;-83
2022/02/06 01:28:42;;;;;;;7.35;1.73;;;;;;;5.84;60.52;100346.47;1088596;54;20029;-81
2022/02/06 01:29:54;;;;;;;5.93;1.50;;;;;;;5.83;60.54;100345.63;1097525;39;20541;-83
2022/02/06 01:31:24;;;;;;;4.75;1.40;;;;;;;5.96;60.32;100345.59;1088723;54;20035;-82
2022/02/06 01:32:38;;;;;;;6.80;1.63;;;;;;;5.87;60.66;100348.91;1088607;54;20025;-83
2022/02/06 01:33:46;;;;;;;6.80;1.58;;;;;;;5.89;60.44;100339.03;1088615;54;20026;-79
2022/02/06 01:34:55;;;;;;;6.80;1.77;;;;;;;5.89;59.93;100334.59;1088453;54;20042;-82
2022/02/06 01:36:04;;;;;;;6.55;1.50;;;;;;;5.88;60.23;100335.53;1088611;54;20177;-84
2022/02/06 01:37:18;;;;;;;6.05;1.50;;;;;;;5.94;60.17;100334.25;1088581;54;20033;-82
2022/02/06 01:38:25;;;;;;;5.60;1.50;;;;;;;5.96;60.22;100334.97;1088586;54;20042;-81
2022/02/06 01:39:48;;;;;;;5.82;1.85;;;;;;;5.93;60.37;100330.75;1088688;54;20034;-82
2022/02/06 01:42:44;;;;;;;11.63;1.88;;;;;;;5.94;60.24;100331.63;1088632;54;20018;-83
2022/02/06 01:43:51;;;;;;;6.63;1.73;;;;;;;5.96;60.06;100328.84;1088552;54;20041;-81
2022/02/06 02:26:49;;;;;;;6.30;1.90;;;;;;;5.88;59.27;100242.66;1087799;54;20025;-81
2022/02/06 02:53:06;;;;;;;6.72;1.50;;;;;;;6.04;59.05;100210.59;1087571;54;20038;-81
2022/02/06 02:54:12;;;;;;;6.57;1.70;;;;;;;5.94;59.23;100205.06;1091992;31;20721;-82
2022/02/06 02:55:27;;;;;;;4.45;1.20;;;;;;;5.98;59.11;100207.50;1088531;54;20030;-84
2022/02/06 03:23:37;;;;;;;6.55;1.25;;;;;;;6.28;59.09;100163.78;1110603;39;20967;-85
2022/02/06 03:26:19;;;;;;;;;;;;;;;6.28;58.30;100159.31;1088527;54;20026;-83
2022/02/06 03:30:29;;;;;;;6.60;1.60;;;;;;;6.27;58.33;100154.94;1080769;54;20042;-84
2022/02/06 04:30:49;;;;;;;7.15;1.67;;;;;;;6.65;56.49;100062.72;1085296;54;20058;-80
2022/02/06 04:31:54;;;;;;;6.32;1.48;;;;;;;6.57;56.30;100060.66;1088093;54;20033;-78
2022/02/06 05:55:45;;;;;;;9.77;1.50;;;;;;;6.82;57.20;100014.41;1076563;54;20072;-82
2022/02/06 06:35:52;;;;;;;6.57;1.95;;;;;;;6.71;57.89;99970.06;1093594;39;20693;-82
2022/02/06 06:36:54;;;;;;;6.15;1.63;;;;;;;6.76;57.94;99971.53;1088405;54;20023;-83
2022/02/06 06:38:37;;;;;;;5.22;1.48;;;;;;;6.78;57.63;99966.94;1088499;54;20074;-83
2022/02/06 07:35:18;;;;;;;6.75;1.80;;;;;;;6.56;58.39;99875.69;1086566;54;20043;-79
2022/02/06 07:36:20;;;;;;;7.10;1.58;;;;;;;6.60;58.44;99866.50;1088375;54;20207;-82
2022/02/06 07:37:47;;;;;;;9.40;1.83;;;;;;;6.66;58.36;99859.84;1088417;54;20055;-82
2022/02/06 07:38:57;;;;;;;5.93;1.73;;;;;;;6.68;58.36;99864.06;1088287;54;20772;-82
2022/02/06 07:40:02;;;;;;;6.35;1.45;;;;;;;6.72;58.37;99868.16;1088224;54;20034;-82
2022/02/06 07:41:21;;;;;;;8.13;2.17;;;;;;;6.74;58.07;99851.25;1088418;54;20034;-82
2022/02/06 07:42:23;;;;;;;6.28;1.60;;;;;;;6.64;58.39;99857.31;1088297;54;20022;-83
2022/02/06 07:45:39;;;;;;;8.13;1.63;;;;;;;6.62;58.79;99851.25;1088444;54;20725;-81
2022/02/06 07:46:44;;;;;;;7.97;2.63;;;;;;;6.85;58.14;99846.72;1088327;54;20030;-82
2022/02/06 07:48:13;;;;;;;6.70;1.95;;;;;;;6.80;58.32;99840.13;1088034;54;20047;-83
2022/02/06 07:49:16;;;;;;;7.25;1.77;;;;;;;6.85;58.26;99843.25;1088052;54;20654;-80
2022/02/06 07:50:24;;;;;;;5.45;1.48;;;;;;;6.77;58.41;99848.34;1088296;54;20018;-82
2022/02/06 07:51:26;;;;;;;5.70;1.48;;;;;;;6.78;58.43;99842.06;1088223;54;20031;-83
2022/02/06 07:53:06;;;;;;;6.38;1.73;;;;;;;6.67;58.64;99833.16;1088179;54;20069;-80
2022/02/06 07:54:10;;;;;;;7.57;1.80;;;;;;;6.73;58.45;99837.13;1087749;54;20030;-80
2022/02/06 07:55:18;;;;;;;6.13;1.85;;;;;;;6.71;58.76;99833.75;1087866;54;20099;-81
2022/02/06 07:56:20;;;;;;;5.85;1.50;;;;;;;6.68;58.48;99832.19;1088303;54;20010;-80
2022/02/06 07:58:01;;;;;;;6.18;1.35;;;;;;;6.72;58.80;99822.97;1088244;54;20019;-81
2022/02/06 07:59:05;;;;;;;7.80;1.50;;;;;;;6.71;58.84;99826.59;1088025;54;20034;-81
2022/02/06 08:00:33;;;;;;;6.93;1.42;;;;;;;6.63;59.20;99826.41;1088470;39;20461;-81
2022/02/06 08:01:35;;;;;;;6.97;1.60;;;;;;;6.67;59.20;99819.00;1087819;54;20022;-83
2022/02/06 08:02:44;;;;;;;10.07;1.80;;;;;;;6.75;58.99;99826.38;1087784;54;20011;-80
2022/02/06 08:03:46;;;;;;;7.60;1.90;;;;;;;6.77;59.02;99825.25;1087594;54;20019;-80
2022/02/06 08:04:59;;;;;;;7.38;2.22;;;;;;;6.85;59.02;99820.16;1088003;54;20042;-81
2022/02/06 08:06:18;;;;;;;7.53;2.03;;;;;;;6.80;59.05;99814.41;1087880;54;20050;-81
2022/02/06 08:07:22;;;;;;;10.57;2.38;;;;;;;6.91;58.86;99815.31;1087946;54;20041;-82
2022/02/06 08:09:09;;;;;;;4.72;1.35;;;;;;;6.88;58.88;99808.47;1087992;54;20061;-80
2022/02/06 08:10:14;;;;;;;7.55;1.35;;;;;;;6.68;59.10;99808.28;1087995;54;20022;-79
2022/02/06 08:13:39;;;;;;;7.65;2.20;;;;;;;6.76;59.29;99802.31;1097640;39;20661;-82
2022/02/06 08:14:51;;;;;;;6.88;1.60;;;;;;;6.84;58.70;99801.69;1088020;54;20023;-79
2022/02/06 08:16:00;;;;;;;7.13;1.33;;;;;;;6.91;58.71;99800.22;1089046;47;20053;-82
2022/02/06 08:17:02;;;;;;;6.63;1.63;;;;;;;6.99;58.48;99795.09;1089293;47;20058;-82
2022/02/06 08:18:09;;;;;;;5.25;1.30;;;;;;;7.08;58.15;99790.00;1088187;54;20030;-81
2022/02/06 08:19:10;;;;;;;4.50;1.55;;;;;;;7.15;58.16;99791.19;1088313;54;20046;-81
2022/02/06 08:20:56;;;;;;;8.55;1.95;;;;;;;6.99;58.24;99789.78;1088182;54;20091;-80
2022/02/06 08:22:00;;;;;;;8.50;1.90;;;;;;;6.84;58.75;99793.72;1088290;54;20014;-82
2022/02/06 08:23:25;;;;;;;6.60;1.50;;;;;;;6.86;58.51;99786.47;1088181;54;20030;-81
2022/02/06 08:24:27;;;;;;;4.28;1.30;;;;;;;6.99;58.36;99780.97;1087833;54;20572;-82
2022/02/06 08:29:04;;;;;;;7.72;1.60;;;;;;;7.01;58.30;99758.59;1088052;54;20019;-80
2022/02/06 08:47:50;;;;;;;5.05;1.55;;;;;;;6.93;58.55;99771.69;1087938;54;20041;-82
2022/02/06 08:54:49;;;;;;;8.25;1.80;;;;;;;6.71;59.23;99770.81;1087956;54;20033;-80
2022/02/06 08:55:50;;;;;;;5.32;2.08;;;;;;;6.67;59.26;99781.81;1091578;47;20019;-81
2022/02/06 08:57:03;;;;;;;6.57;1.40;;;;;;;6.72;59.40;99775.16;1088258;47;20015;-80
2022/02/06 08:58:07;;;;;;;5.70;1.88;;;;;;;6.75;59.39;99776.75;1088158;54;20034;-79
2022/02/06 08:59:13;;;;;;;7.07;1.83;;;;;;;6.76;59.57;99766.94;1087969;54;20037;-79
2022/02/06 09:00:17;;;;;;;5.38;1.60;;;;;;;6.81;59.28;99768.25;1087494;54;20038;-79
2022/02/06 09:01:32;;;;;;;5.80;2.08;;;;;;;6.85;59.45;99763.53;1087568;54;20026;-81
2022/02/06 09:02:36;;;;;;;6.57;1.58;;;;;;;6.72;59.56;99767.19;1089365;47;20033;-79
2022/02/06 09:03:50;;;;;;;4.60;1.58;;;;;;;6.58;60.12;99767.50;1092910;39;20531;-80
2022/02/06 09:04:55;;;;;;;6.35;1.40;;;;;;;6.80;59.77;99766.56;1091475;47;20019;-81
2022/02/06 09:06:09;;;;;;;5.75;1.90;;;;;;;6.77;59.91;99760.66;1088442;54;20018;-82
2022/02/06 09:14:23;;;;;;;7.35;1.90;;;;;;;6.79;60.73;99761.38;1087347;54;20049;-78
2022/02/06 09:15:28;;;;;;;5.22;1.77;;;;;;;6.71;60.93;99749.56;1088397;46;20067;-80
2022/02/06 09:16:41;;;;;;;5.20;1.42;;;;;;;6.76;60.69;99756.31;1087894;54;20050;-79
2022/02/06 09:17:49;;;;;;;5.45;1.63;;;;;;;6.79;60.63;99748.09;1088263;46;20213;-77
2022/02/06 09:18:51;;;;;;;5.63;1.70;;;;;;;6.89;60.71;99742.84;1086093;54;20038;-81
2022/02/06 09:19:56;;;;;;;5.93;1.30;;;;;;;6.92;60.34;99738.13;1085814;54;20039;-77
2022/02/06 09:21:00;;;;;;;6.10;2.00;;;;;;;6.90;60.63;99734.75;1086563;54;20031;-79
2022/02/06 09:22:04;;;;;;;8.00;1.52;;;;;;;6.94;60.49;99738.84;1085940;54;20046;-78
2022/02/06 09:23:08;;;;;;;4.30;1.17;;;;;;;7.04;60.40;99736.25;1085579;54;20034;-78
2022/02/06 09:24:10;;;;;;;6.07;2.00;;;;;;;7.11;60.48;99745.41;1086027;54;20046;-78
2022/02/06 09:25:15;;;;;;;5.45;1.20;;;;;;;7.06;60.78;99736.13;1085429;54;20042;-80
2022/02/06 09:26:17;;;;;;;6.22;1.40;;;;;;;7.08;61.45;99737.69;1085159;54;20065;-79
2022/02/06 09:27:22;;;;;;;3.78;1.08;;;;;;;7.15;61.38;99740.66;1085175;54;20042;-78
2022/02/06 09:28:26;;;;;;;6.38;1.30;;;;;;;7.20;61.31;99732.31;1085855;54;20025;-77
2022/02/06 09:29:33;;;;;;;4.50;1.10;;;;;;;7.14;61.51;99718.53;1084362;54;20675;-78
2022/02/06 09:30:37;;;;;;;5.35;1.35;;;;;;;7.06;61.54;99733.47;1088081;54;20045;-80
2022/02/06 09:31:42;;;;;;;4.25;1.23;;;;;;;7.14;61.95;99723.84;1088031;54;20097;-80
2022/02/06 09:36:01;;;;;;;5.07;1.13;;;;;;;7.25;62.25;99712.31;1087834;54;20041;-82
2022/02/06 09:37:04;;;;;;;3.38;1.20;;;;;;;7.27;62.16;99705.06;1088812;46;20066;-80
2022/02/06 09:38:09;;;;;;;4.78;1.27;;;;;;;7.29;61.90;99703.09;1090368;39;20448;-82
2022/02/06 09:39:19;;;;;;;3.28;1.02;;;;;;;7.38;61.84;99685.50;1088435;54;20729;-81
2022/02/06 09:40:32;;;;;;;4.90;1.40;;;;;;;7.29;62.01;99683.66;1095008;39;20598;-83
2022/02/06 09:41:37;;;;;;;7.13;1.38;;;;;;;7.37;62.00;99690.97;1088316;54;20046;-83
2022/02/06 09:42:44;;;;;;;4.80;1.20;;;;;;;7.35;61.75;99683.09;1088291;54;20035;-81
2022/02/06 09:43:57;;;;;;;3.80;1.08;;;;;;;7.33;61.65;99682.41;1088362;54;20030;-82
2022/02/06 09:45:05;;;;;;;4.18;0.98;;;;;;;7.37;61.68;99670.53;1088531;54;20038;-84
2022/02/06 09:46:08;;;;;;;3.95;1.30;;;;;;;7.40;61.77;99688.03;1088405;54;20037;-81
2022/02/06 09:47:13;;;;;;;5.57;1.30;;;;;;;7.56;61.47;99682.22;1096120;39;20565;-81
2022/02/06 09:48:18;;;;;;;3.75;1.25;;;;;;;7.38;61.16;99680.19;1088096;54;20022;-81
2022/02/06 09:49:25;;;;;;;7.03;1.45;;;;;;;7.34;61.05;99679.63;1087704;54;20669;-81
2022/02/06 09:50:30;;;;;;;5.28;1.30;;;;;;;7.39;61.11;99668.59;1087825;54;20039;-82
2022/02/06 09:51:34;;;;;;;5.63;1.27;;;;;;;7.42;61.41;99672.78;1093246;46;20034;-83
2022/02/06 09:52:42;;;;;;;4.00;1.02;;;;;;;7.45;60.95;99664.56;1087648;54;20039;-81
2022/02/06 09:53:46;;;;;;;5.03;1.30;;;;;;;7.51;60.78;99661.34;1087786;54;20039;-80
2022/02/06 09:54:49;;;;;;;4.28;1.30;;;;;;;7.51;60.81;99656.03;1086392;54;20069;-79
2022/02/06 09:55:55;;;;;;;4.13;1.20;;;;;;;7.57;61.01;99659.97;1087387;54;20130;-81
2022/02/06 09:57:00;;;;;;;5.22;1.23;;;;;;;7.72;60.27;99655.94;1087407;54;20039;-79
2022/02/06 09:58:28;;;;;;;5.05;1.40;;;;;;;7.64;60.55;99653.97;1086861;54;20057;-80
2022/02/06 10:00:45;;;;;;;3.40;1.20;;;;;;;7.63;60.55;99652.28;1087711;54;20050;-80
2022/02/06 10:01:48;;;;;;;4.53;1.25;;;;;;;7.67;60.31;99628.91;1088186;54;20018;-81
2022/02/06 10:02:55;;;;;;;6.07;1.13;;;;;;;7.64;60.14;99639.81;1088150;54;20101;-81
2022/02/06 10:04:02;;;;;;;4.10;1.20;;;;;;;7.62;60.33;99644.44;1087841;54;20082;-80
2022/02/06 10:05:09;;;;;;;4.60;1.30;;;;;;;7.74;60.49;99647.84;1088418;46;20038;-83
2022/02/06 10:06:17;;;;;;;5.05;1.13;;;;;;;7.71;60.10;99643.63;1092672;46;20039;-80
2022/02/06 10:07:29;;;;;;;5.10;1.55;;;;;;;7.68;60.45;99641.25;1088117;47;20095;-80
2022/02/06 10:08:38;;;;;;;4.20;0.98;;;;;;;7.68;60.43;99629.75;1087666;54;20046;-80
2022/02/06 10:09:48;;;;;;;6.93;1.60;;;;;;;7.69;60.47;99634.09;1088066;54;20037;-80
2022/02/06 10:11:00;;;;;;;5.20;1.33;;;;;;;7.69;60.23;99623.44;1089689;46;20045;-82
2022/02/06 10:12:07;;;;;;;5.10;1.13;;;;;;;7.68;60.45;99635.06;1087772;54;20556;-81
2022/02/06 10:13:12;;;;;;;3.85;0.98;;;;;;;7.69;60.15;99624.31;1087235;54;20042;-81
2022/02/06 10:14:18;;;;;;;3.42;0.77;;;;;;;7.66;60.31;99624.56;1087102;54;20039;-80
2022/02/06 10:15:20;;;;;;;4.43;1.08;;;;;;;7.71;60.50;99630.31;1087651;54;20588;-81
2022/02/06 10:16:27;;;;;;;6.78;1.40;;;;;;;7.69;60.19;99634.94;1087481;54;20023;-79
2022/02/06 10:17:34;;;;;;;5.53;1.80;;;;;;;7.72;60.22;99624.00;1088281;54;20046;-81
2022/02/06 10:18:39;;;;;;;3.92;1.45;;;;;;;7.73;60.28;99624.88;1088276;54;20030;-85
2022/02/06 10:20:04;;;;;;;4.53;1.67;;;;;;;7.71;60.11;99626.81;1088338;54;20018;-83
2022/02/06 10:21:09;;;;;;;5.13;1.27;;;;;;;7.84;59.73;99616.75;1090968;46;20051;-81
2022/02/06 10:22:26;;;;;;;4.35;0.95;;;;;;;7.75;59.79;99614.91;1086850;54;20134;-80
2022/02/06 10:23:36;;;;;;;5.10;1.00;;;;;;;7.74;60.05;99622.06;1087405;54;20102;-81
2022/02/06 10:24:42;;;;;;;7.00;1.40;;;;;;;7.78;59.92;99604.84;1087351;54;20011;-82
2022/02/06 10:25:48;;;;;;;4.85;1.25;;;;;;;7.78;59.84;99609.31;1088253;54;20608;-82
2022/02/06 10:27:06;;;;;;;5.93;1.20;;;;;;;7.77;60.17;99605.84;1087885;54;20034;-80
2022/02/06 10:28:32;;;;;;;6.32;1.02;;;;;;;7.89;59.93;99603.03;1087925;54;20077;-81
2022/02/06 10:29:52;;;;;;;4.25;1.02;;;;;;;7.81;59.79;99609.88;1088084;54;20622;-84
2022/02/06 10:30:57;;;;;;;2.78;0.90;;;;;;;7.81;59.88;99601.06;1089787;46;20023;-83
2022/02/06 10:32:20;;;;;;;8.20;1.10;;;;;;;7.81;59.71;99587.78;1088617;46;20046;-81
2022/02/06 10:33:53;;;;;;;7.85;1.00;;;;;;;7.85;60.16;99596.31;1091355;39;20547;-81
2022/02/06 10:35:31;;;;;;;3.55;0.85;;;;;;;7.81;60.33;99593.91;1088212;54;20010;-81
2022/02/06 10:36:38;;;;;;;4.95;1.10;;;;;;;7.79;60.13;99587.88;1088256;54;20035;-83
2022/02/06 10:37:43;;;;;;;4.32;1.15;;;;;;;7.84;60.19;99586.66;1088197;54;20038;-80
2022/02/06 10:38:51;;;;;;;3.45;0.93;;;;;;;7.87;60.10;99587.19;1087874;54;20037;-80
2022/02/06 10:40:02;;;;;;;3.22;0.88;;;;;;;7.76;60.19;99576.69;1087423;54;20038;-80
2022/02/06 10:41:11;;;;;;;3.42;0.90;;;;;;;7.77;60.62;99583.69;1087480;39;20456;-79
2022/02/06 10:42:24;;;;;;;3.53;1.00;;;;;;;7.78;60.57;99580.06;1086931;54;20057;-79
2022/02/06 10:43:29;;;;;;;3.97;0.90;;;;;;;7.77;60.52;99567.72;1087464;54;20069;-77
2022/02/06 10:44:34;;;;;;;3.72;1.17;;;;;;;7.73;61.04;99582.28;1088203;47;20022;-78
2022/02/06 10:45:38;;;;;;;4.80;0.95;;;;;;;7.72;60.81;99554.84;1087347;54;20048;-80
2022/02/06 10:46:53;;;;;;;5.78;1.38;;;;;;;7.80;60.71;99567.44;1086420;54;20042;-79
2022/02/06 10:47:58;;;;;;;4.43;0.90;;;;;;;7.80;60.63;99562.13;1086727;54;20094;-80
2022/02/06 10:49:06;;;;;;;5.53;1.02;;;;;;;7.75;60.88;99569.66;1086698;54;20031;-80
2022/02/06 10:50:30;;;;;;;4.45;1.10;;;;;;;7.73;61.02;99539.72;1086854;54;20072;-79
2022/02/06 10:51:49;;;;;;;3.33;1.00;;;;;;;7.76;60.98;99526.13;1086318;54;20069;-77
2022/02/06 10:52:53;;;;;;;5.75;1.20;;;;;;;7.73;60.98;99551.19;1086710;54;20034;-78
2022/02/06 10:54:14;;;;;;;4.40;1.20;;;;;;;7.78;61.14;99537.47;1086809;54;20019;-81
2022/02/06 10:55:21;;;;;;;7.25;1.58;;;;;;;7.76;61.10;99536.75;1086581;54;20038;-79
2022/02/06 10:56:23;;;;;;;3.10;0.82;;;;;;;7.72;61.50;99530.88;1086621;54;20042;-79
2022/02/06 10:57:28;;;;;;;4.18;1.00;;;;;;;7.69;61.46;99535.66;1087213;54;20035;-81
2022/02/06 10:58:34;;;;;;;2.88;1.02;;;;;;;7.69;61.83;99533.00;1087744;54;20034;-79
2022/02/06 10:59:43;;;;;;;4.82;1.23;;;;;;;7.70;61.67;99540.00;1086610;54;20077;-79
2022/02/06 11:00:48;;;;;;;5.10;0.93;;;;;;;7.79;61.50;99539.97;1086306;54;20042;-78
2022/02/06 11:01:49;;;;;;;3.67;1.10;;;;;;;7.82;61.29;99530.91;1086463;46;20064;-80
2022/02/06 11:03:02;;;;;;;4.88;1.45;;;;;;;7.84;61.54;99526.25;1087355;54;20678;-80
2022/02/06 11:04:18;;;;;;;3.80;1.05;;;;;;;7.74;61.98;99528.94;1087027;54;20038;-81
2022/02/06 11:05:30;;;;;;;4.50;1.20;;;;;;;7.80;62.14;99528.38;1086738;54;20042;-79
2022/02/06 11:06:43;;;;;;;4.65;1.17;;;;;;;7.74;62.61;99539.56;1086802;54;20122;-79
2022/02/06 11:07:55;;;;;;;6.05;1.35;;;;;;;7.65;62.92;99527.94;1086227;54;20102;-79
2022/02/06 11:08:56;;;;;;;3.40;1.17;;;;;;;7.71;62.57;99515.91;1085976;54;20026;-80
2022/02/06 11:10:15;;;;;;;4.25;1.02;;;;;;;7.67;63.08;99508.34;1086107;54;20038;-79
2022/02/06 11:11:19;;;;;;;4.63;1.17;;;;;;;7.72;62.54;99498.97;1086127;54;20046;-79
2022/02/06 11:12:25;;;;;;;5.80;1.40;;;;;;;7.80;62.44;99515.06;1085272;54;20137;-79
2022/02/06 11:13:27;;;;;;;5.05;1.20;;;;;;;7.68;62.72;99523.31;1085465;54;20038;-78
2022/02/06 11:14:35;;;;;;;4.00;1.33;;;;;;;7.68;62.94;99504.69;1085187;54;20045;-77
2022/02/06 11:15:46;;;;;;;6.85;1.58;;;;;;;7.65;63.48;99500.50;1086994;54;20058;-82
2022/02/06 11:16:52;;;;;;;3.80;1.20;;;;;;;7.56;63.96;99507.47;1086898;54;20124;-81
2022/02/06 11:18:17;;;;;;;4.05;1.33;;;;;;;7.49;64.44;99503.69;1087079;54;20042;-79
2022/02/06 11:19:27;;;;;;;3.67;1.08;;;;;;;7.51;64.34;99492.94;1086579;54;20049;-82
2022/02/06 11:20:30;;;;;;;2.90;1.13;;;;;;;7.58;63.96;99489.56;1086831;54;20042;-80
2022/02/06 11:21:35;;;;;;;4.47;1.33;;;;;;;7.54;64.13;99482.88;1086426;54;20046;-80
2022/02/06 11:22:57;;;;;;;4.20;1.10;;;;;;;7.54;64.55;99493.50;1086320;54;20077;-82
2022/02/06 11:24:04;;;;;;;3.80;0.90;;;;;;;7.55;65.02;99489.88;1086902;39;20646;-80
2022/02/06 11:25:11;;;;;;;5.13;1.23;;;;;;;7.49;65.02;99480.63;1087082;54;20057;-80
2022/02/06 11:26:15;;;;;;;4.55;1.10;;;;;;;7.46;65.22;99482.72;1086695;54;20041;-79
2022/02/06 11:27:21;;;;;;;4.45;1.20;;;;;;;7.51;65.35;99479.66;1086565;54;20038;-79
2022/02/06 11:28:27;;;;;;;4.82;1.20;;;;;;;7.56;65.05;99486.19;1087116;54;20040;-78
2022/02/06 11:29:32;;;;;;;4.30;1.42;;;;;;;7.54;65.30;99474.88;1087307;54;20057;-81
2022/02/06 11:30:37;;;;;;;3.65;1.15;;;;;;;7.57;65.46;99476.41;1086769;54;20037;-79
2022/02/06 11:31:42;;;;;;;5.38;1.13;;;;;;;7.54;65.12;99471.38;1086722;46;20089;-80
2022/02/06 11:32:52;;;;;;;3.60;1.00;;;;;;;7.44;65.10;99472.19;1086709;54;20039;-81
2022/02/06 11:33:58;;;;;;;6.28;1.05;;;;;;;7.45;65.19;99468.56;1087282;39;20546;-79
2022/02/06 11:35:14;;;;;;;4.47;1.10;;;;;;;7.49;65.21;99463.81;1086904;54;20038;-81
2022/02/06 11:36:25;;;;;;;3.45;0.75;;;;;;;7.44;65.40;99466.06;1087135;54;20042;-79
2022/02/06 11:43:55;;;;;;;2.83;0.75;;;;;;;7.31;66.56;99445.88;1086973;54;20018;-81
2022/02/06 11:45:16;;;;;;;4.05;1.15;;;;;;;7.29;66.33;99452.31;1086615;54;20039;-78
2022/02/06 11:46:25;;;;;;;3.95;0.90;;;;;;;7.29;65.99;99437.19;1085772;54;20042;-80
2022/02/06 11:47:35;;;;;;;3.72;0.95;;;;;;;7.36;66.28;99447.28;1085886;54;20027;-79
2022/02/06 11:48:45;;;;;;;2.90;0.88;;;;;;;7.40;66.04;99438.03;1084440;54;20038;-78
2022/02/06 11:49:56;;;;;;;2.75;0.70;;;;;;;7.34;66.16;99434.97;1085870;54;20030;-78
2022/02/06 11:51:05;;;;;;;4.15;0.85;;;;;;;7.39;66.35;99423.06;1085118;54;20038;-80
2022/02/06 11:52:10;;;;;;;3.35;0.90;;;;;;;7.34;66.57;99429.66;1085505;54;20034;-79
2022/02/06 11:53:26;;;;;;;3.70;1.20;;;;;;;7.40;66.64;99424.75;1085988;54;20049;-79
2022/02/06 11:54:32;;;;;;;4.63;1.20;;;;;;;7.47;66.64;99426.72;1086469;54;20054;-79
2022/02/06 11:55:39;;;;;;;3.10;0.80;;;;;;;7.40;66.18;99416.78;1086216;54;20034;-78
2022/02/06 11:56:43;;;;;;;3.97;1.15;;;;;;;7.33;66.21;99417.34;1086385;54;20085;-78
2022/02/06 11:57:46;;;;;;;2.17;0.75;;;;;;;7.37;66.30;99412.56;1086682;54;20038;-78
2022/02/06 11:58:52;;;;;;;2.30;0.80;;;;;;;7.32;66.35;99409.50;1086429;54;20086;-77
2022/02/06 12:00:16;;;;;;;4.38;1.08;;;;;;;7.41;66.71;99405.16;1086715;54;21025;-77
2022/02/06 12:01:31;;;;;;;4.40;1.20;;;;;;;7.37;66.00;99395.78;1086067;54;20615;-78
2022/02/06 12:02:34;;;;;;;2.70;0.80;;;;;;;7.34;66.31;99386.25;1086976;54;20045;-77
2022/02/06 12:03:52;;;;;;;3.17;0.85;;;;;;;7.39;65.99;99386.69;1086856;47;20061;-78
2022/02/06 12:05:14;;;;;;;3.55;0.77;;;;;;;7.43;65.53;99376.59;1087194;47;20037;-77
2022/02/06 12:06:19;;;;;;;2.20;0.95;;;;;;;7.39;65.86;99372.53;1087170;54;20046;-77
2022/02/06 12:07:23;;;;;;;4.68;1.17;;;;;;;7.41;65.92;99373.25;1087061;54;20026;-77
2022/02/06 12:08:25;;;;;;;4.88;0.75;;;;;;;7.47;65.81;99375.31;1086371;54;20038;-77
2022/02/06 12:09:31;;;;;;;2.13;0.60;;;;;;;7.41;65.76;99371.44;1085826;54;20038;-79
2022/02/06 12:11:14;;;;;;;2.90;0.80;;;;;;;7.48;65.86;99363.72;1085905;54;20612;-78
2022/02/06 12:12:20;;;;;;;2.30;0.68;;;;;;;7.43;65.92;99361.47;1085831;54;20102;-78
2022/02/06 12:13:27;;;;;;;2.55;0.60;;;;;;;7.42;65.68;99343.00;1086365;47;20044;-77
2022/02/06 12:14:37;;;;;;;2.78;0.70;;;;;;;7.40;65.80;99364.44;1086066;54;20039;-78
2022/02/06 12:15:51;;;;;;;3.50;1.00;;;;;;;7.47;65.67;99338.94;1085859;54;20035;-78
2022/02/06 12:17:09;;;;;;;3.83;0.85;;;;;;;7.50;65.54;99345.81;1085543;54;20042;-78
2022/02/06 12:18:15;;;;;;;2.97;0.80;;;;;;;7.48;65.31;99339.78;1084457;47;20039;-79
2022/02/06 12:19:31;;;;;;;3.92;1.13;;;;;;;7.52;65.72;99337.66;1084744;54;20567;-80
2022/02/06 12:20:55;;;;;;;3.40;0.88;;;;;;;7.47;65.56;99344.28;1086799;54;20038;-80
2022/02/06 12:22:38;;;;;;;2.03;0.68;;;;;;;7.53;65.62;99321.59;1087690;47;20098;-79
2022/02/06 12:23:49;;;;;;;3.33;0.70;;;;;;;7.55;65.77;99322.28;1085620;54;20043;-79
2022/02/06 12:24:56;;;;;;;4.50;1.00;;;;;;;7.65;65.89;99323.06;1086296;54;20042;-81
2022/02/06 12:26:00;;;;;;;3.92;0.80;;;;;;;7.60;65.27;99312.03;1086045;54;20035;-79
2022/02/06 12:27:23;;;;;;;2.30;0.75;;;;;;;7.62;65.36;99314.56;1085693;47;20041;-78
2022/02/06 12:28:28;;;;;;;1.67;0.70;;;;;;;7.60;65.02;99308.56;1086203;54;20015;-79
2022/02/06 12:29:40;;;;;;;2.17;0.70;;;;;;;7.58;64.95;99307.84;1086354;54;20049;-80
2022/02/06 12:30:44;;;;;;;1.42;0.60;;;;;;;7.65;65.21;99308.94;1088799;39;20443;-80
2022/02/06 12:31:56;;;;;;;2.20;0.60;;;;;;;7.60;65.70;99312.03;1086471;47;20042;-79
2022/02/06 12:33:25;;;;;;;4.13;1.00;;;;;;;7.59;65.65;99312.19;1087540;54;20582;-80
2022/02/06 12:37:23;;;;;;;3.40;1.02;;;;;;;7.67;66.37;99282.19;1087086;54;20034;-78
2022/02/06 12:38:27;;;;;;;5.80;0.98;;;;;;;7.61;66.38;99287.13;1086745;54;20037;-79
2022/02/06 12:39:32;;;;;;;3.00;0.82;;;;;;;7.55;65.87;99284.19;1086892;54;20030;-77
2022/02/06 12:40:36;;;;;;;2.45;0.80;;;;;;;7.69;65.72;99285.56;1088165;39;20366;-78
2022/02/06 12:41:45;;;;;;;2.08;0.70;;;;;;;7.61;65.71;99271.16;1088031;39;20570;-79
2022/02/06 12:42:56;;;;;;;2.45;0.80;;;;;;;7.60;65.53;99273.97;1086292;54;20043;-78
2022/02/06 12:44:03;;;;;;;2.58;0.70;;;;;;;7.69;65.49;99264.28;1087012;54;20046;-78
2022/02/06 12:45:10;;;;;;;1.92;0.60;;;;;;;7.69;65.39;99259.81;1086895;54;20042;-78
2022/02/06 12:46:12;;;;;;;1.67;0.50;;;;;;;7.73;64.77;99268.34;1086900;54;20038;-78
2022/02/06 12:47:17;;;;;;;2.55;0.60;;;;;;;7.68;64.98;99250.16;1087716;54;20042;-77
2022/02/06 12:48:21;;;;;;;2.63;0.80;;;;;;;7.74;65.10;99270.00;1087728;54;20037;-76
2022/02/06 12:49:29;;;;;;;3.05;0.70;;;;;;;7.81;65.28;99255.13;1086924;54;20046;-78
2022/02/06 12:50:35;;;;;;;1.83;0.63;;;;;;;7.79;65.42;99257.09;1086768;54;20038;-78
2022/02/06 12:51:36;;;;;;;2.20;0.70;;;;;;;7.84;64.99;99254.00;1086871;54;20038;-78
2022/02/06 12:52:41;;;;;;;2.20;0.75;;;;;;;7.81;65.19;99261.28;1087086;54;20038;-77
2022/02/06 12:53:42;;;;;;;3.13;0.75;;;;;;;7.76;65.15;99238.75;1087142;54;20042;-80
2022/02/06 12:54:49;;;;;;;2.22;0.60;;;;;;;7.85;65.30;99237.88;1086635;54;20084;-77
2022/02/06 12:55:54;;;;;;;2.28;0.70;;;;;;;7.79;64.93;99241.97;1087024;46;20043;-76
2022/02/06 12:56:57;;;;;;;2.22;0.95;;;;;;;7.84;64.86;99235.38;1086567;54;20061;-77
2022/02/06 12:58:02;;;;;;;2.80;0.85;;;;;;;7.83;64.99;99237.22;1087111;54;20031;-76
2022/02/06 12:59:05;;;;;;;2.83;0.93;;;;;;;7.80;65.05;99232.16;1086419;54;20049;-77
2022/02/06 13:00:11;;;;;;;3.55;0.70;;;;;;;7.83;64.95;99218.59;1086791;54;20034;-79
2022/02/06 13:01:15;;;;;;;4.90;1.05;;;;;;;7.79;65.05;99209.19;1086488;39;20479;-78
2022/02/06 13:02:34;;;;;;;2.22;0.75;;;;;;;7.87;65.21;99217.28;1086814;54;20034;-79
2022/02/06 13:03:41;;;;;;;2.50;0.98;;;;;;;7.87;64.67;99211.97;1086151;54;20042;-80
2022/02/06 13:05:01;;;;;;;2.85;0.68;;;;;;;7.87;64.71;99206.63;1086494;54;20034;-77
2022/02/06 13:06:09;;;;;;;1.40;0.55;;;;;;;7.85;64.88;99208.59;1086526;54;20090;-79
2022/02/06 13:07:12;;;;;;;1.98;0.60;;;;;;;7.79;65.21;99199.38;1086314;54;20496;-79
2022/02/06 13:08:16;;;;;;;2.05;0.60;;;;;;;7.81;65.18;99196.59;1086558;46;20042;-79
2022/02/06 13:09:20;;;;;;;2.15;0.70;;;;;;;7.82;65.34;99200.94;1086133;54;20046;-79
2022/02/06 13:10:29;;;;;;;1.85;0.60;;;;;;;7.89;65.12;99199.34;1086398;54;20052;-78
2022/02/06 13:11:40;;;;;;;1.75;0.60;;;;;;;7.84;64.67;99204.25;1085923;54;20047;-78
2022/02/06 13:12:51;;;;;;;2.33;0.60;;;;;;;7.86;64.87;99193.50;1085836;54;20034;-78
2022/02/06 13:14:03;;;;;;;;;;;;;;;7.70;65.42;99172.84;1086249;54;20049;-79